createdAt,value
2018-01-29T00:00:46.339Z,41.90
2018-01-29T00:01:46.812Z,41.90
2018-01-29T00:03:47.754Z,41.90
2018-01-29T00:04:48.224Z,41.87
2018-01-29T00:05:48.696Z,41.86
2018-01-29T00:06:49.168Z,41.85
2018-01-29T00:07:49.632Z,41.83
2018-01-29T00:08:50.108Z,41.88
2018-01-29T00:09:50.581Z,41.89
2018-01-29T00:10:51.051Z,41.91
2018-01-29T00:11:51.517Z,41.87
2018-01-29T00:12:51.992Z,41.86
2018-01-29T00:13:52.461Z,41.87
2018-01-29T00:14:52.934Z,41.87
2018-01-29T00:15:53.407Z,41.88
2018-01-29T00:17:54.346Z,41.88
2018-01-29T00:18:54.811Z,41.89
2018-01-29T00:19:55.288Z,41.88
2018-01-29T00:20:55.757Z,41.88
2018-01-29T00:21:56.227Z,41.90
2018-01-29T00:22:56.696Z,41.93
2018-01-29T00:23:57.169Z,41.91
2018-01-29T00:24:57.645Z,41.92
2018-01-29T00:25:58.111Z,41.90
2018-01-29T00:26:58.582Z,41.89
2018-01-29T00:27:59.052Z,41.92
2018-01-29T00:29:59.989Z,41.94
2018-01-29T00:31:00.465Z,41.92
2018-01-29T00:32:00.935Z,41.94
2018-01-29T00:33:01.405Z,41.92
2018-01-29T00:34:01.875Z,41.95
2018-01-29T00:37:03.287Z,41.97
2018-01-29T00:38:03.759Z,41.98
2018-01-29T00:40:04.702Z,41.95
2018-01-29T00:41:05.166Z,41.93
2018-01-29T00:42:05.641Z,41.92
2018-01-29T00:43:06.112Z,41.93
2018-01-29T00:44:06.583Z,41.94
2018-01-29T00:46:07.522Z,42.01
2018-01-29T00:47:07.994Z,42.05
2018-01-29T00:48:08.460Z,42.08
2018-01-29T00:49:08.934Z,42.11
2018-01-29T00:50:09.406Z,42.15
2018-01-29T00:51:09.876Z,42.15
2018-01-29T00:52:10.342Z,42.17
2018-01-29T00:53:10.821Z,42.14
2018-01-29T00:54:11.286Z,42.13
2018-01-29T00:56:12.229Z,42.14
2018-01-29T00:57:12.703Z,42.14
2018-01-29T00:58:13.174Z,42.15
2018-01-29T00:59:13.634Z,42.16
2018-01-29T01:00:14.110Z,42.20
2018-01-29T01:01:14.579Z,42.21
2018-01-29T01:02:15.054Z,42.22
2018-01-29T01:03:15.518Z,42.25
2018-01-29T01:04:15.992Z,42.23
2018-01-29T01:05:16.463Z,42.25
2018-01-29T01:06:16.933Z,42.27
2018-01-29T01:07:17.405Z,42.29
2018-01-29T01:08:17.875Z,42.30
2018-01-29T01:09:18.344Z,42.31
2018-01-29T01:10:18.812Z,42.32
2018-01-29T01:11:19.284Z,42.34
2018-01-29T01:12:19.756Z,42.36
2018-01-29T01:13:20.226Z,42.36
2018-01-29T01:14:20.696Z,42.36
2018-01-29T01:15:21.167Z,42.36
2018-01-29T01:16:21.639Z,42.37
2018-01-29T01:17:22.106Z,42.32
2018-01-29T01:18:22.578Z,42.35
2018-01-29T01:19:23.049Z,42.35
2018-01-29T01:20:23.519Z,42.36
2018-01-29T01:21:23.984Z,42.34
2018-01-29T01:22:24.459Z,42.37
2018-01-29T01:23:24.931Z,42.37
2018-01-29T01:24:25.399Z,42.39
2018-01-29T01:26:26.342Z,42.41
2018-01-29T01:28:27.282Z,42.43
2018-01-29T01:29:27.752Z,42.39
2018-01-29T01:30:28.221Z,42.38
2018-01-29T01:31:28.693Z,42.38
2018-01-29T01:32:29.160Z,42.39
2018-01-29T01:33:29.633Z,42.38
2018-01-29T01:34:30.104Z,42.39
2018-01-29T01:35:30.574Z,42.41
2018-01-29T01:37:31.513Z,42.42
2018-01-29T01:38:31.985Z,42.43
2018-01-29T01:39:32.449Z,42.41
2018-01-29T01:40:32.926Z,42.42
2018-01-29T01:41:33.397Z,42.43
2018-01-29T01:42:33.865Z,42.45
2018-01-29T01:43:34.331Z,42.45
2018-01-29T01:45:35.276Z,42.45
2018-01-29T01:46:35.748Z,42.45
2018-01-29T01:47:36.218Z,42.44
2018-01-29T01:48:36.689Z,42.41
2018-01-29T01:49:37.157Z,42.41
2018-01-29T01:50:37.624Z,42.40
2018-01-29T01:51:38.100Z,42.43
2018-01-29T01:52:38.568Z,42.43
2018-01-29T01:53:50.878Z,42.42
2018-01-29T01:54:39.505Z,42.42
2018-01-29T01:55:39.983Z,42.42
2018-01-29T01:56:40.451Z,42.42
2018-01-29T01:57:40.920Z,42.39
2018-01-29T01:58:41.391Z,42.43
2018-01-29T01:59:41.864Z,42.45
2018-01-29T02:00:42.341Z,42.46
2018-01-29T02:01:42.799Z,42.49
2018-01-29T02:02:43.271Z,42.50
2018-01-29T02:03:43.743Z,42.51
2018-01-29T02:04:44.213Z,42.53
2018-01-29T02:05:44.682Z,42.53
2018-01-29T02:06:45.154Z,42.57
2018-01-29T02:07:45.622Z,42.54
2018-01-29T02:08:46.094Z,42.54
2018-01-29T02:09:46.564Z,42.58
2018-01-29T02:11:47.505Z,42.57
2018-01-29T02:12:47.971Z,42.59
2018-01-29T02:13:48.439Z,42.59
2018-01-29T02:14:48.912Z,42.63
2018-01-29T02:15:49.381Z,42.61
2018-01-29T02:16:49.851Z,42.60
2018-01-29T02:17:50.322Z,42.59
2018-01-29T02:18:50.793Z,42.60
2018-01-29T02:19:51.265Z,42.60
2018-01-29T02:20:51.733Z,42.60
2018-01-29T02:21:52.203Z,42.61
2018-01-29T02:22:52.673Z,42.61
2018-01-29T02:23:53.145Z,42.60
2018-01-29T02:24:53.615Z,42.63
2018-01-29T02:25:54.089Z,42.66
2018-01-29T02:26:54.555Z,42.66
2018-01-29T02:27:55.024Z,42.66
2018-01-29T02:28:55.496Z,42.64
2018-01-29T02:29:55.966Z,42.63
2018-01-29T02:30:56.435Z,42.65
2018-01-29T02:31:56.930Z,42.67
2018-01-29T02:32:57.378Z,42.68
2018-01-29T02:33:57.848Z,42.67
2018-01-29T02:34:58.319Z,42.67
2018-01-29T02:35:58.792Z,42.67
2018-01-29T02:36:59.259Z,42.66
2018-01-29T02:37:59.727Z,42.64
2018-01-29T02:39:00.199Z,42.65
2018-01-29T02:40:00.669Z,42.66
2018-01-29T02:41:01.142Z,42.64
2018-01-29T02:42:01.609Z,42.66
2018-01-29T02:43:02.081Z,42.66
2018-01-29T02:44:02.552Z,42.68
2018-01-29T02:45:03.020Z,42.68
2018-01-29T02:46:03.491Z,42.63
2018-01-29T02:47:03.962Z,42.67
2018-01-29T02:48:04.433Z,42.68
2018-01-29T02:49:04.905Z,42.68
2018-01-29T02:50:05.373Z,42.68
2018-01-29T02:51:05.845Z,42.70
2018-01-29T02:52:06.313Z,42.72
2018-01-29T02:53:06.785Z,42.71
2018-01-29T02:54:07.254Z,42.72
2018-01-29T02:55:07.728Z,42.73
2018-01-29T02:56:08.200Z,42.75
2018-01-29T02:57:08.666Z,42.74
2018-01-29T02:58:09.136Z,42.71
2018-01-29T02:59:09.606Z,42.70
2018-01-29T03:00:10.077Z,42.70
2018-01-29T03:01:10.553Z,42.71
2018-01-29T03:02:11.022Z,42.73
2018-01-29T03:03:11.492Z,42.73
2018-01-29T03:04:11.964Z,42.71
2018-01-29T03:05:12.429Z,42.75
2018-01-29T03:06:12.904Z,42.75
2018-01-29T03:07:13.373Z,42.77
2018-01-29T03:08:13.846Z,42.77
2018-01-29T03:09:14.314Z,42.76
2018-01-29T03:10:14.787Z,42.76
2018-01-29T03:12:15.725Z,42.76
2018-01-29T03:13:16.197Z,42.73
2018-01-29T03:15:17.137Z,42.70
2018-01-29T03:16:17.601Z,42.71
2018-01-29T03:17:18.080Z,42.72
2018-01-29T03:18:18.548Z,42.74
2018-01-29T03:19:19.018Z,42.73
2018-01-29T03:20:19.484Z,42.73
2018-01-29T03:22:20.429Z,42.74
2018-01-29T03:23:20.901Z,42.74
2018-01-29T03:24:21.370Z,42.72
2018-01-29T03:26:22.311Z,42.69
2018-01-29T03:27:22.778Z,42.68
2018-01-29T03:28:23.254Z,42.67
2018-01-29T03:29:23.722Z,42.68
2018-01-29T03:30:24.188Z,42.70
2018-01-29T03:32:25.139Z,42.71
2018-01-29T03:33:25.604Z,42.70
2018-01-29T03:34:26.069Z,42.68
2018-01-29T03:35:26.543Z,42.67
2018-01-29T03:36:27.015Z,42.68
2018-01-29T03:37:27.486Z,42.67
2018-01-29T03:38:27.958Z,42.67
2018-01-29T03:39:28.427Z,42.66
2018-01-29T03:40:28.898Z,42.65
2018-01-29T03:41:29.369Z,42.66
2018-01-29T03:42:29.838Z,42.63
2018-01-29T03:43:30.313Z,42.63
2018-01-29T03:45:31.245Z,42.64
2018-01-29T03:46:31.720Z,42.66
2018-01-29T03:47:32.191Z,42.67
2018-01-29T03:48:32.662Z,42.66
2018-01-29T03:49:33.132Z,42.64
2018-01-29T03:50:33.602Z,42.68
2018-01-29T03:51:34.069Z,42.70
2018-01-29T03:52:34.543Z,42.71
2018-01-29T03:53:35.016Z,42.74
2018-01-29T03:54:35.485Z,42.75
2018-01-29T03:55:35.955Z,42.76
2018-01-29T03:56:36.429Z,42.76
2018-01-29T03:57:36.897Z,42.77
2018-01-29T03:58:37.361Z,42.78
2018-01-29T04:00:38.313Z,42.80
2018-01-29T04:01:38.778Z,42.82
2018-01-29T04:02:39.247Z,42.82
2018-01-29T04:03:39.719Z,42.81
2018-01-29T04:04:40.189Z,42.85
2018-01-29T04:05:40.660Z,42.80
2018-01-29T04:06:41.130Z,42.82
2018-01-29T04:07:41.600Z,42.79
2018-01-29T04:08:42.068Z,42.80
2018-01-29T04:09:42.542Z,42.83
2018-01-29T04:10:43.012Z,42.86
2018-01-29T04:11:43.486Z,42.88
2018-01-29T04:12:43.948Z,42.97
2018-01-29T04:13:44.424Z,42.92
2018-01-29T04:14:44.895Z,42.91
2018-01-29T04:15:45.365Z,42.89
2018-01-29T04:16:45.836Z,42.89
2018-01-29T04:17:46.305Z,42.89
2018-01-29T04:18:46.773Z,42.90
2018-01-29T04:19:47.247Z,42.89
2018-01-29T04:21:48.188Z,42.90
2018-01-29T04:22:48.655Z,42.88
2018-01-29T04:23:49.129Z,42.88
2018-01-29T04:24:49.599Z,42.87
2018-01-29T04:25:50.070Z,42.87
2018-01-29T04:26:50.543Z,42.88
2018-01-29T04:27:51.006Z,42.88
2018-01-29T04:28:51.479Z,42.88
2018-01-29T04:30:52.420Z,42.90
2018-01-29T04:31:52.886Z,42.89
2018-01-29T04:32:53.361Z,42.89
2018-01-29T04:34:54.304Z,42.87
2018-01-29T04:35:54.773Z,42.86
2018-01-29T04:36:55.245Z,42.86
2018-01-29T04:37:55.714Z,42.88
2018-01-29T04:38:56.181Z,42.85
2018-01-29T04:39:56.654Z,42.90
2018-01-29T04:42:58.061Z,42.92
2018-01-29T04:43:58.536Z,42.90
2018-01-29T04:44:59.058Z,42.93
2018-01-29T04:45:59.478Z,42.92
2018-01-29T04:46:59.947Z,42.95
2018-01-29T04:49:00.889Z,42.93
2018-01-29T04:50:01.354Z,42.94
2018-01-29T04:51:01.830Z,42.93
2018-01-29T04:52:02.302Z,42.90
2018-01-29T04:53:02.771Z,42.92
2018-01-29T04:55:03.711Z,42.93
2018-01-29T04:56:04.182Z,42.91
2018-01-29T04:57:04.656Z,42.91
2018-01-29T04:58:05.123Z,42.92
2018-01-29T04:59:05.594Z,42.90
2018-01-29T05:00:06.064Z,42.90
2018-01-29T05:01:06.533Z,42.89
2018-01-29T05:02:07.007Z,42.89
2018-01-29T05:04:07.947Z,42.87
2018-01-29T05:05:08.416Z,42.85
2018-01-29T05:06:08.891Z,42.83
2018-01-29T05:07:09.359Z,42.84
2018-01-29T05:08:09.829Z,42.82
2018-01-29T05:09:10.296Z,42.82
2018-01-29T05:10:10.770Z,42.81
2018-01-29T05:12:11.713Z,42.78
2018-01-29T05:14:12.653Z,42.78
2018-01-29T05:15:13.121Z,42.80
2018-01-29T05:16:13.588Z,42.83
2018-01-29T05:17:14.064Z,42.80
2018-01-29T05:18:14.535Z,42.81
2018-01-29T05:19:15.006Z,42.78
2018-01-29T05:20:15.476Z,42.79
2018-01-29T05:21:15.946Z,42.80
2018-01-29T05:22:16.415Z,42.80
2018-01-29T05:25:17.833Z,42.83
2018-01-29T05:26:18.306Z,42.85
2018-01-29T05:27:18.770Z,42.88
2018-01-29T05:28:19.241Z,42.90
2018-01-29T05:29:19.712Z,42.90
2018-01-29T05:30:20.186Z,42.90
2018-01-29T05:31:20.652Z,42.91
2018-01-29T05:32:21.123Z,42.87
2018-01-29T05:33:21.595Z,42.84
2018-01-29T05:35:22.531Z,42.84
2018-01-29T05:36:23.006Z,42.84
2018-01-29T05:38:23.947Z,42.88
2018-01-29T05:39:24.429Z,42.90
2018-01-29T05:40:24.890Z,42.94
2018-01-29T05:41:25.359Z,43.00
2018-01-29T05:42:25.830Z,43.03
2018-01-29T05:43:26.296Z,43.04
2018-01-29T05:44:26.770Z,43.05
2018-01-29T05:45:27.242Z,43.08
2018-01-29T05:47:28.184Z,43.10
2018-01-29T05:48:28.654Z,43.10
2018-01-29T05:49:29.129Z,43.13
2018-01-29T05:50:29.596Z,43.16
2018-01-29T05:51:30.065Z,43.20
2018-01-29T05:52:30.536Z,43.22
2018-01-29T05:53:31.009Z,43.24
2018-01-29T05:54:31.481Z,43.28
2018-01-29T05:55:31.949Z,43.28
2018-01-29T05:58:33.362Z,43.29
2018-01-29T05:59:33.833Z,43.30
2018-01-29T06:00:34.304Z,43.30
2018-01-29T06:01:34.774Z,43.33
2018-01-29T06:02:35.246Z,43.33
2018-01-29T06:03:35.710Z,43.33
2018-01-29T06:04:36.185Z,43.34
2018-01-29T06:06:37.132Z,43.36
2018-01-29T06:07:37.599Z,43.38
2018-01-29T06:08:38.121Z,43.37
2018-01-29T06:09:38.542Z,43.37
2018-01-29T06:10:39.007Z,43.36
2018-01-29T06:11:39.481Z,43.36
2018-01-29T06:12:39.952Z,43.36
2018-01-29T06:13:40.423Z,43.36
2018-01-29T06:14:40.891Z,43.36
2018-01-29T06:15:41.364Z,43.37
2018-01-29T06:16:41.832Z,43.36
2018-01-29T06:19:43.246Z,43.36
2018-01-29T06:20:43.719Z,43.33
2018-01-29T06:21:44.197Z,43.33
2018-01-29T06:22:44.662Z,43.31
2018-01-29T06:23:45.127Z,43.29
2018-01-29T06:24:45.602Z,43.24
2018-01-29T06:26:46.544Z,43.24
2018-01-29T06:27:47.015Z,43.20
2018-01-29T06:28:47.484Z,43.24
2018-01-29T06:29:47.956Z,43.21
2018-01-29T06:30:48.422Z,43.18
2018-01-29T06:31:48.898Z,43.22
2018-01-29T06:32:49.369Z,43.21
2018-01-29T06:33:49.841Z,43.22
2018-01-29T06:34:50.312Z,43.21
2018-01-29T06:35:50.778Z,43.18
2018-01-29T06:36:51.252Z,43.19
2018-01-29T06:37:51.723Z,43.18
2018-01-29T06:38:52.195Z,43.19
2018-01-29T06:39:52.663Z,43.19
2018-01-29T06:40:53.129Z,43.14
2018-01-29T06:41:53.607Z,43.17
2018-01-29T06:42:54.076Z,43.17
2018-01-29T06:43:54.547Z,43.16
2018-01-29T06:44:55.018Z,43.18
2018-01-29T06:45:55.485Z,43.16
2018-01-29T06:46:55.964Z,43.11
2018-01-29T06:47:56.431Z,43.12
2018-01-29T06:48:56.901Z,43.13
2018-01-29T06:49:57.365Z,43.14
2018-01-29T06:51:58.312Z,43.12
2018-01-29T06:52:58.783Z,43.12
2018-01-29T06:53:59.256Z,43.09
2018-01-29T06:54:59.725Z,43.07
2018-01-29T06:56:00.195Z,43.03
2018-01-29T06:57:00.666Z,43.02
2018-01-29T07:00:02.078Z,42.99
2018-01-29T07:01:02.551Z,42.96
2018-01-29T07:02:03.024Z,42.95
2018-01-29T07:03:03.492Z,42.89
2018-01-29T07:05:04.433Z,42.79
2018-01-29T07:06:04.904Z,42.78
2018-01-29T07:07:05.376Z,42.71
2018-01-29T07:08:05.840Z,42.66
2018-01-29T07:09:06.316Z,42.65
2018-01-29T07:10:06.789Z,42.62
2018-01-29T07:11:07.260Z,42.58
2018-01-29T07:12:07.726Z,42.54
2018-01-29T07:13:08.212Z,42.52
2018-01-29T07:14:08.676Z,42.51
2018-01-29T07:15:09.151Z,42.48
2018-01-29T07:17:10.084Z,42.46
2018-01-29T07:18:10.559Z,42.42
2018-01-29T07:19:11.030Z,42.39
2018-01-29T07:20:11.500Z,42.40
2018-01-29T07:21:11.975Z,42.38
2018-01-29T07:22:12.443Z,42.38
2018-01-29T07:23:12.915Z,42.34
2018-01-29T07:24:13.386Z,42.29
2018-01-29T07:25:13.860Z,42.28
2018-01-29T07:26:14.331Z,42.25
2018-01-29T07:27:14.802Z,42.23
2018-01-29T07:28:15.267Z,42.24
2018-01-29T07:29:15.746Z,42.23
2018-01-29T07:31:16.688Z,42.15
2018-01-29T07:32:17.154Z,42.14
2018-01-29T07:33:17.632Z,42.14
2018-01-29T07:34:18.105Z,42.13
2018-01-29T07:35:18.576Z,42.11
2018-01-29T07:36:19.047Z,42.13
2018-01-29T07:37:19.519Z,42.15
2018-01-29T07:38:19.992Z,42.13
2018-01-29T07:39:20.463Z,42.11
2018-01-29T07:41:21.409Z,42.12
2018-01-29T07:42:21.881Z,42.13
2018-01-29T07:43:22.352Z,42.11
2018-01-29T07:44:22.824Z,42.11
2018-01-29T07:45:23.297Z,42.09
2018-01-29T07:46:23.771Z,42.09
2018-01-29T07:47:24.245Z,42.05
2018-01-29T07:48:24.717Z,42.06
2018-01-29T07:50:25.655Z,42.06
2018-01-29T07:51:26.134Z,42.05
2018-01-29T07:52:26.606Z,42.01
2018-01-29T07:53:27.081Z,41.99
2018-01-29T07:54:27.547Z,41.98
2018-01-29T07:55:40.164Z,41.99
2018-01-29T07:57:28.970Z,41.93
2018-01-29T07:58:29.443Z,41.91
2018-01-29T07:59:29.917Z,41.93
2018-01-29T08:00:30.388Z,41.92
2018-01-29T08:01:30.858Z,41.91
2018-01-29T08:02:31.336Z,41.88
2018-01-29T08:03:31.810Z,41.91
2018-01-29T08:04:32.283Z,41.89
2018-01-29T08:05:32.751Z,41.88
2018-01-29T08:06:33.228Z,41.88
2018-01-29T08:07:33.703Z,41.86
2018-01-29T08:08:34.182Z,41.86
2018-01-29T08:09:34.651Z,41.85
2018-01-29T08:10:35.123Z,41.82
2018-01-29T08:11:35.598Z,41.78
2018-01-29T08:12:36.072Z,41.79
2018-01-29T08:13:36.543Z,41.81
2018-01-29T08:14:37.018Z,41.81
2018-01-29T08:17:38.439Z,41.83
2018-01-29T08:18:38.913Z,41.81
2018-01-29T08:19:39.394Z,41.77
2018-01-29T08:20:39.863Z,41.76
2018-01-29T08:21:40.338Z,41.71
2018-01-29T08:23:41.285Z,41.72
2018-01-29T08:24:41.828Z,41.73
2018-01-29T08:25:42.228Z,41.74
2018-01-29T08:26:54.189Z,41.72
2018-01-29T08:28:43.656Z,41.67
2018-01-29T08:29:44.136Z,41.62
2018-01-29T08:30:44.605Z,41.65
2018-01-29T08:31:45.081Z,41.64
2018-01-29T08:32:45.556Z,41.65
2018-01-29T08:33:46.032Z,41.66
2018-01-29T08:34:46.502Z,41.62
2018-01-29T08:35:47.000Z,41.57
2018-01-29T08:36:47.449Z,41.54
2018-01-29T08:37:47.969Z,41.54
2018-01-29T08:38:48.400Z,41.55
2018-01-29T08:39:48.875Z,41.54
2018-01-29T08:40:49.351Z,41.50
2018-01-29T08:41:49.838Z,41.49
2018-01-29T08:42:50.314Z,41.47
2018-01-29T08:44:51.263Z,41.42
2018-01-29T08:45:51.740Z,41.42
2018-01-29T08:46:52.215Z,41.40
2018-01-29T08:47:52.676Z,41.36
2018-01-29T08:48:53.163Z,41.36
2018-01-29T08:49:53.641Z,41.35
2018-01-29T08:50:54.120Z,41.39
2018-01-29T08:51:54.593Z,41.41
2018-01-29T08:52:55.072Z,41.47
2018-01-29T08:53:55.547Z,41.56
2018-01-29T08:54:56.015Z,41.66
2018-01-29T08:55:56.496Z,41.78
2018-01-29T08:56:56.967Z,41.94
2018-01-29T08:57:57.447Z,42.07
2018-01-29T08:58:57.909Z,42.26
2018-01-29T08:59:58.395Z,42.44
2018-01-29T09:00:58.870Z,42.63
2018-01-29T09:01:59.345Z,42.79
2018-01-29T09:02:59.819Z,43.01
2018-01-29T09:04:00.281Z,43.20
2018-01-29T09:05:00.770Z,43.41
2018-01-29T09:06:01.245Z,43.62
2018-01-29T09:07:01.718Z,43.83
2018-01-29T09:08:02.175Z,44.00
2018-01-29T09:09:02.666Z,44.21
2018-01-29T09:10:03.140Z,44.45
2018-01-29T09:11:03.596Z,44.68
2018-01-29T09:12:04.136Z,44.96
2018-01-29T09:13:04.559Z,45.18
2018-01-29T09:14:05.030Z,45.36
2018-01-29T09:15:05.498Z,45.55
2018-01-29T09:16:05.974Z,45.74
2018-01-29T09:17:06.447Z,45.87
2018-01-29T09:18:06.904Z,46.01
2018-01-29T09:19:07.389Z,46.04
2018-01-29T09:20:07.848Z,46.05
2018-01-29T09:21:08.334Z,46.02
2018-01-29T09:22:08.857Z,45.97
2018-01-29T09:23:09.278Z,45.94
2018-01-29T09:24:09.738Z,45.84
2018-01-29T09:25:10.219Z,45.76
2018-01-29T09:26:10.691Z,45.64
2018-01-29T09:27:11.163Z,45.53
2018-01-29T09:28:11.637Z,45.41
2018-01-29T09:30:12.578Z,45.14
2018-01-29T09:31:13.036Z,45.01
2018-01-29T09:32:13.572Z,44.80
2018-01-29T09:33:13.993Z,44.63
2018-01-29T09:34:14.467Z,44.53
2018-01-29T09:35:14.938Z,44.42
2018-01-29T09:36:15.409Z,44.32
2018-01-29T09:38:16.340Z,43.99
2018-01-29T09:39:16.829Z,43.91
2018-01-29T09:40:17.301Z,43.82
2018-01-29T09:41:17.774Z,43.71
2018-01-29T09:42:18.232Z,43.59
2018-01-29T09:43:18.721Z,43.50
2018-01-29T09:44:19.179Z,43.35
2018-01-29T09:45:19.665Z,43.30
2018-01-29T09:46:20.142Z,43.19
2018-01-29T09:47:32.305Z,43.10
2018-01-29T09:48:21.078Z,43.01
2018-01-29T09:49:21.558Z,42.90
2018-01-29T09:50:22.036Z,42.84
2018-01-29T09:51:22.510Z,42.72
2018-01-29T09:52:22.970Z,42.58
2018-01-29T09:53:23.457Z,42.49
2018-01-29T09:54:23.938Z,42.37
2018-01-29T09:55:24.408Z,42.29
2018-01-29T09:56:24.881Z,42.16
2018-01-29T09:57:25.355Z,42.06
2018-01-29T09:58:25.831Z,41.96
2018-01-29T09:59:26.291Z,41.88
2018-01-29T10:00:26.782Z,41.85
2018-01-29T10:02:27.779Z,41.68
2018-01-29T10:03:28.191Z,41.64
2018-01-29T10:04:28.680Z,41.61
2018-01-29T10:05:29.155Z,41.56
2018-01-29T10:06:29.633Z,41.48
2018-01-29T10:07:30.105Z,41.41
2018-01-29T10:08:30.582Z,41.37
2018-01-29T10:09:31.066Z,41.30
2018-01-29T10:10:31.519Z,41.28
2018-01-29T10:11:32.013Z,41.24
2018-01-29T10:12:32.488Z,41.32
2018-01-29T10:13:32.975Z,41.40
2018-01-29T10:16:34.377Z,41.62
2018-01-29T10:17:34.852Z,41.78
2018-01-29T10:18:35.326Z,41.95
2018-01-29T10:19:35.803Z,42.12
2018-01-29T10:20:36.278Z,42.33
2018-01-29T10:21:36.754Z,42.52
2018-01-29T10:22:37.229Z,42.72
2018-01-29T10:23:37.704Z,42.89
2018-01-29T10:24:38.184Z,43.05
2018-01-29T10:25:38.652Z,43.23
2018-01-29T10:26:39.127Z,43.43
2018-01-29T10:27:39.603Z,43.65
2018-01-29T10:28:40.076Z,43.87
2018-01-29T10:29:40.552Z,44.09
2018-01-29T10:30:41.027Z,44.35
2018-01-29T10:31:41.498Z,44.61
2018-01-29T10:32:41.972Z,44.87
2018-01-29T10:33:42.445Z,45.15
2018-01-29T10:34:42.919Z,45.49
2018-01-29T10:35:43.393Z,45.78
2018-01-29T10:36:43.865Z,46.06
2018-01-29T10:37:44.338Z,46.34
2018-01-29T10:38:44.809Z,46.63
2018-01-29T10:39:45.321Z,46.93
2018-01-29T10:40:45.757Z,47.14
2018-01-29T10:41:46.226Z,47.25
2018-01-29T10:42:46.699Z,47.29
2018-01-29T10:43:47.180Z,47.30
2018-01-29T10:44:47.643Z,47.27
2018-01-29T10:45:48.116Z,47.30
2018-01-29T10:46:48.587Z,47.26
2018-01-29T10:47:49.059Z,47.26
2018-01-29T10:48:49.531Z,47.30
2018-01-29T10:49:50.005Z,47.29
2018-01-29T10:50:50.476Z,47.26
2018-01-29T10:51:50.949Z,47.20
2018-01-29T10:52:51.422Z,47.08
2018-01-29T10:53:51.892Z,46.99
2018-01-29T10:54:52.364Z,46.97
2018-01-29T10:55:52.838Z,46.94
2018-01-29T10:56:53.311Z,46.80
2018-01-29T10:57:53.784Z,46.61
2018-01-29T10:58:54.255Z,46.50
2018-01-29T10:59:54.728Z,46.40
2018-01-29T11:00:55.204Z,46.32
2018-01-29T11:01:55.675Z,46.21
2018-01-29T11:02:56.148Z,46.06
2018-01-29T11:03:56.622Z,45.92
2018-01-29T11:04:57.095Z,45.78
2018-01-29T11:05:57.569Z,45.57
2018-01-29T11:06:58.042Z,45.33
2018-01-29T11:07:58.518Z,45.12
2018-01-29T11:08:58.990Z,44.90
2018-01-29T11:10:59.952Z,44.39
2018-01-29T11:12:00.413Z,44.16
2018-01-29T11:14:01.379Z,43.90
2018-01-29T11:15:01.853Z,43.79
2018-01-29T11:16:02.326Z,43.67
2018-01-29T11:17:02.803Z,43.55
2018-01-29T11:19:03.751Z,43.34
2018-01-29T11:20:04.215Z,43.21
2018-01-29T11:21:04.705Z,43.09
2018-01-29T11:22:05.179Z,42.90
2018-01-29T11:23:05.654Z,42.83
2018-01-29T11:25:06.607Z,42.68
2018-01-29T11:26:07.082Z,42.66
2018-01-29T11:27:07.560Z,42.67
2018-01-29T11:28:08.037Z,42.65
2018-01-29T11:29:08.512Z,42.67
2018-01-29T11:30:08.972Z,42.71
2018-01-29T11:31:09.464Z,42.78
2018-01-29T11:32:09.938Z,42.88
2018-01-29T11:33:10.417Z,43.02
2018-01-29T11:34:10.878Z,43.18
2018-01-29T11:35:11.367Z,43.35
2018-01-29T11:37:12.318Z,43.71
2018-01-29T11:38:12.794Z,43.88
2018-01-29T11:39:13.267Z,44.04
2018-01-29T11:40:13.745Z,44.22
2018-01-29T11:41:14.218Z,44.35
2018-01-29T11:42:14.694Z,44.50
2018-01-29T11:43:15.157Z,44.64
2018-01-29T11:44:15.643Z,44.81
2018-01-29T11:45:16.117Z,44.95
2018-01-29T11:47:17.050Z,45.16
2018-01-29T11:48:17.538Z,45.30
2018-01-29T11:49:18.013Z,45.45
2018-01-29T11:50:18.486Z,45.62
2018-01-29T11:51:18.958Z,45.78
2018-01-29T11:52:19.431Z,45.98
2018-01-29T11:53:31.426Z,46.13
2018-01-29T11:54:20.376Z,46.25
2018-01-29T11:56:21.322Z,46.38
2018-01-29T11:57:21.793Z,46.43
2018-01-29T11:58:22.264Z,46.44
2018-01-29T11:59:22.727Z,46.41
2018-01-29T12:00:23.210Z,46.41
2018-01-29T12:01:23.722Z,46.42
2018-01-29T12:02:24.153Z,46.38
2018-01-29T12:03:24.612Z,46.26
2018-01-29T12:04:25.098Z,46.09
2018-01-29T12:05:25.570Z,45.90
2018-01-29T12:06:26.045Z,45.75
2018-01-29T12:07:26.521Z,45.58
2018-01-29T12:08:26.984Z,45.41
2018-01-29T12:09:27.459Z,45.29
2018-01-29T12:10:27.932Z,45.22
2018-01-29T12:11:28.403Z,45.18
2018-01-29T12:12:28.875Z,45.11
2018-01-29T12:14:29.807Z,44.89
2018-01-29T12:15:30.294Z,44.81
2018-01-29T12:16:30.766Z,44.67
2018-01-29T12:17:31.239Z,44.48
2018-01-29T12:18:31.700Z,44.30
2018-01-29T12:19:32.184Z,44.20
2018-01-29T12:20:32.657Z,44.11
2018-01-29T12:21:33.134Z,43.97
2018-01-29T12:22:33.607Z,43.80
2018-01-29T12:23:34.080Z,43.66
2018-01-29T12:24:34.555Z,43.52
2018-01-29T12:25:35.028Z,43.33
2018-01-29T12:26:35.501Z,43.08
2018-01-29T12:27:35.977Z,42.85
2018-01-29T12:28:36.453Z,42.69
2018-01-29T12:29:36.928Z,42.55
2018-01-29T12:30:37.388Z,42.49
2018-01-29T12:31:37.876Z,42.32
2018-01-29T12:32:38.349Z,42.14
2018-01-29T12:34:39.300Z,41.88
2018-01-29T12:35:39.775Z,41.72
2018-01-29T12:36:40.239Z,41.56
2018-01-29T12:37:40.727Z,41.42
2018-01-29T12:39:41.677Z,41.22
2018-01-29T12:40:42.159Z,41.17
2018-01-29T12:41:42.630Z,41.14
2018-01-29T12:42:43.104Z,41.12
2018-01-29T12:43:43.566Z,41.16
2018-01-29T12:44:44.056Z,41.21
2018-01-29T12:45:44.533Z,41.32
2018-01-29T12:46:45.008Z,41.41
2018-01-29T12:47:45.483Z,41.52
2018-01-29T12:48:45.959Z,41.58
2018-01-29T12:50:46.909Z,41.78
2018-01-29T12:51:47.384Z,41.94
2018-01-29T12:53:48.337Z,42.20
2018-01-29T12:54:48.795Z,42.32
2018-01-29T12:55:49.285Z,42.46
2018-01-29T12:56:49.758Z,42.62
2018-01-29T12:57:50.233Z,42.80
2018-01-29T12:58:50.706Z,42.98
2018-01-29T12:59:51.180Z,43.16
2018-01-29T13:00:51.653Z,43.31
2018-01-29T13:01:52.129Z,43.45
2018-01-29T13:02:52.599Z,43.56
2018-01-29T13:03:53.074Z,43.71
2018-01-29T13:04:53.534Z,43.87
2018-01-29T13:05:54.021Z,44.04
2018-01-29T13:06:54.498Z,44.18
2018-01-29T13:07:54.965Z,44.27
2018-01-29T13:08:55.764Z,44.33
2018-01-29T13:09:55.909Z,44.42
2018-01-29T13:10:56.382Z,44.44
2018-01-29T13:11:56.853Z,44.40
2018-01-29T13:13:57.797Z,44.31
2018-01-29T13:14:58.267Z,44.34
2018-01-29T13:15:58.738Z,44.26
2018-01-29T13:16:59.212Z,44.14
2018-01-29T13:17:59.674Z,44.00
2018-01-29T13:20:00.625Z,43.77
2018-01-29T13:21:01.088Z,43.64
2018-01-29T13:22:01.570Z,43.46
2018-01-29T13:23:02.042Z,43.28
2018-01-29T13:24:02.512Z,43.14
2018-01-29T13:25:02.984Z,43.07
2018-01-29T13:26:03.456Z,43.01
2018-01-29T13:27:03.929Z,42.93
2018-01-29T13:28:04.402Z,42.88
2018-01-29T13:29:04.874Z,42.81
2018-01-29T13:30:05.344Z,42.73
2018-01-29T13:32:06.287Z,42.37
2018-01-29T13:33:06.763Z,42.18
2018-01-29T13:34:07.239Z,42.01
2018-01-29T13:35:07.708Z,41.83
2018-01-29T13:36:08.168Z,41.68
2018-01-29T13:37:08.656Z,41.52
2018-01-29T13:38:09.130Z,41.34
2018-01-29T13:40:10.077Z,40.97
2018-01-29T13:41:10.549Z,40.78
2018-01-29T13:42:11.023Z,40.68
2018-01-29T13:43:11.496Z,40.60
2018-01-29T13:44:11.971Z,40.53
2018-01-29T13:45:12.433Z,40.51
2018-01-29T13:46:12.920Z,40.52
2018-01-29T13:47:13.392Z,40.53
2018-01-29T13:48:13.867Z,40.53
2018-01-29T13:49:14.344Z,40.51
2018-01-29T13:50:14.819Z,40.53
2018-01-29T13:51:15.292Z,40.53
2018-01-29T13:52:15.769Z,40.54
2018-01-29T13:53:16.242Z,40.51
2018-01-29T13:54:16.721Z,40.50
2018-01-29T13:55:17.237Z,40.51
2018-01-29T13:56:17.656Z,40.52
2018-01-29T13:57:18.143Z,40.52
2018-01-29T13:58:18.620Z,40.51
2018-01-29T13:59:19.095Z,40.52
2018-01-29T14:00:19.571Z,40.59
2018-01-29T14:01:20.046Z,40.61
2018-01-29T14:03:20.987Z,40.76
2018-01-29T14:04:21.474Z,40.93
2018-01-29T14:05:21.950Z,41.15
2018-01-29T14:06:22.425Z,41.32
2018-01-29T14:07:22.888Z,41.49
2018-01-29T14:08:23.374Z,41.68
2018-01-29T14:09:23.851Z,41.88
2018-01-29T14:10:24.326Z,42.12
2018-01-29T14:11:24.799Z,42.30
2018-01-29T14:14:26.212Z,42.90
2018-01-29T14:15:26.696Z,43.12
2018-01-29T14:16:27.170Z,43.33
2018-01-29T14:17:27.632Z,43.52
2018-01-29T14:18:28.119Z,43.72